Time;durP1;ratioP1;P1;durP2;ratioP2;P2;SDS_P1;SDS_P2;PMS_P1;PMS_P2;Temp;Humidity;BMP_temperature;BMP_pressure;BME280_temperature;BME280_humidity;BME280_pressure;Samples;Min_cycle;Max_cycle;Signal;HPM_P1;HPM_P2
2021/09/12 00:01:09;;;;;;;6.10;5.50;;;;;;;21.96;38.42;94401.48;828193;71;30272;-75
2021/09/12 00:16:08;;;;;;;5.15;4.62;;;;;;;21.95;38.41;94397.83;828327;71;29745;-75
2021/09/12 00:31:08;;;;;;;6.87;5.40;;;;;;;21.89;38.55;94393.94;833948;71;29689;-74
2021/09/12 00:46:14;;;;;;;5.17;4.70;;;;;;;21.69;38.69;94403.39;827711;71;32696;-75
2021/09/12 01:01:15;;;;;;;5.28;4.83;;;;;;;21.66;38.93;94406.04;827831;71;32719;-75
2021/09/12 01:16:17;;;;;;;5.53;5.03;;;;;;;21.67;39.02;94400.89;828244;71;32720;-75
2021/09/12 01:31:14;;;;;;;5.95;5.45;;;;;;;21.51;39.34;94411.72;828493;71;30754;-75
2021/09/12 01:46:08;;;;;;;6.25;5.67;;;;;;;21.40;39.44;94399.53;828347;71;29631;-75
2021/09/12 02:01:09;;;;;;;6.42;5.67;;;;;;;21.50;39.17;94403.52;828282;71;30233;-76
2021/09/12 02:16:17;;;;;;;5.58;5.08;;;;;;;21.30;39.26;94412.91;827343;71;32733;-75
2021/09/12 02:31:15;;;;;;;5.10;4.70;;;;;;;21.23;39.60;94401.35;827183;71;33163;-75
2021/09/12 02:46:09;;;;;;;5.40;5.00;;;;;;;21.32;39.33;94390.64;834061;71;30288;-74
2021/09/12 03:16:08;;;;;;;6.28;5.10;;;;;;;21.03;40.00;94404.68;828272;71;28656;-76
2021/09/12 03:31:08;;;;;;;6.08;5.55;;;;;;;21.18;39.67;94413.11;828692;71;28685;-75
2021/09/12 03:46:08;;;;;;;5.45;4.97;;;;;;;21.05;39.81;94405.09;828201;71;28738;-74
2021/09/12 04:01:14;;;;;;;6.85;5.50;;;;;;;19.03;42.82;94401.55;828953;71;31750;-76
2021/09/12 04:16:09;;;;;;;8.05;6.05;;;;;;;16.96;47.47;94423.20;828336;71;29223;-76
2021/09/12 04:31:09;;;;;;;7.42;5.20;;;;;;;17.80;46.88;94424.61;828481;71;28741;-78
2021/09/12 04:46:15;;;;;;;7.75;6.95;;;;;;;19.00;45.22;94423.52;828190;71;31801;-76
2021/09/12 05:01:16;;;;;;;13.32;10.95;;;;;;;20.77;47.62;94431.48;827323;71;32251;-76
2021/09/12 05:16:09;;;;;;;8.45;7.55;;;;;;;21.69;41.24;94439.45;828295;71;29120;-76
2021/09/12 05:31:14;;;;;;;10.38;9.38;;;;;;;22.11;39.94;94443.08;827319;71;31803;-74
2021/09/12 05:46:14;;;;;;;10.83;8.13;;;;;;;23.29;41.87;94448.39;827354;71;31731;-77
2021/09/12 06:01:51;;;;;;;10.30;9.13;;;;;;;24.08;38.35;94446.27;828122;71;31684;-76
2021/09/12 06:16:14;;;;;;;8.60;7.70;;;;;;;24.43;37.04;94450.25;827670;71;31730;-76
2021/09/12 06:31:12;;;;;;;8.00;7.20;;;;;;;24.72;36.51;94440.42;828279;71;31082;-75
2021/09/12 06:46:08;;;;;;;9.53;7.17;;;;;;;25.16;35.66;94454.13;828131;71;29471;-75
2021/09/12 07:01:09;;;;;;;9.10;8.20;;;;;;;25.63;35.02;94460.10;834046;71;29272;-77
2021/09/12 07:16:08;;;;;;;9.13;8.13;;;;;;;26.27;33.70;94459.25;828378;71;30029;-76
2021/09/12 07:31:08;;;;;;;10.03;8.90;;;;;;;26.25;32.57;94458.88;824345;71;29842;-75
2021/09/12 07:46:12;;;;;;;10.73;9.63;;;;;;;25.68;32.20;94448.39;827097;71;32427;-79
2021/09/12 08:01:15;;;;;;;10.00;8.70;;;;;;;25.51;32.42;94439.20;828138;71;32777;-76
2021/09/12 08:16:09;;;;;;;9.87;8.87;;;;;;;26.01;32.12;94432.23;819580;71;30133;-78
2021/09/12 08:31:08;;;;;;;8.90;7.87;;;;;;;26.29;32.29;94431.38;820032;71;29423;-78
2021/09/12 08:46:10;;;;;;;8.63;7.83;;;;;;;27.13;32.19;94411.15;820047;71;30282;-78
2021/09/12 09:16:08;;;;;;;7.90;7.10;;;;;;;;;;819877;71;29573;-77
2021/09/12 09:31:15;;;;;;;8.63;7.77;;;;;;;28.20;29.29;94368.17;833745;71;32711;-77
2021/09/12 09:46:26;;;;;;;6.73;6.07;;;;;;;;;;828958;71;32943;-76
2021/09/12 10:01:16;;;;;;;6.83;6.00;;;;;;;27.53;28.23;94354.99;825969;71;32794;-78
2021/09/12 10:16:09;;;;;;;7.30;6.67;;;;;;;27.48;28.28;94333.88;817358;71;29730;-75
2021/09/12 11:31:08;;;;;;;6.60;6.00;;;;;;;;;;821337;71;29817;-77
2021/09/12 11:46:11;;;;;;;7.17;6.50;;;;;;;27.70;27.54;93563.48;823007;71;29253;-76
2021/09/12 12:01:11;;;;;;;7.67;6.97;;;;;;;26.88;29.05;94265.12;820247;71;30009;-76
2021/09/12 12:16:10;;;;;;;8.57;7.57;;;;;;;26.36;29.90;94263.20;820542;71;29552;-78
2021/09/12 12:31:17;;;;;;;8.67;7.90;;;;;;;26.10;30.37;94249.71;820742;71;33458;-75
2021/09/12 12:46:19;;;;;;;8.80;7.90;;;;;;;26.60;30.10;94241.89;823132;71;33349;-75
2021/09/12 13:01:10;;;;;;;9.40;7.60;;;;;;;26.67;30.00;94229.15;820534;71;30158;-81
2021/09/12 13:16:15;;;;;;;9.57;8.67;;;;;;;26.31;29.78;94224.00;828718;71;32721;-78
2021/09/12 13:31:33;;;;;;;10.03;9.07;;;;;;;25.87;29.87;94223.29;803981;72;33490;-76
2021/09/12 13:46:25;;;;;;;9.90;9.00;;;;;;;26.07;29.96;94204.77;824647;71;32708;-78
2021/09/12 16:16:59;;;;;;;16.17;12.80;;;;;;;23.62;34.76;94206.19;766202;72;32271;-77
2021/09/12 17:01:39;;;;;;;14.70;13.30;;;;;;;23.43;40.89;94217.99;816109;72;32767;-76
2021/09/12 17:31:08;;;;;;;18.17;14.27;;;;;;;23.10;39.47;94233.90;828485;71;28756;-77
2021/09/12 17:46:09;;;;;;;13.45;12.25;;;;;;;22.15;39.84;94250.12;828520;71;29334;-77
2021/09/12 18:01:08;;;;;;;14.30;12.80;;;;;;;21.67;41.14;94262.77;828296;71;28740;-76
2021/09/12 18:16:12;;;;;;;23.20;20.75;;;;;;;21.18;42.52;94259.66;834019;71;31433;-73
2021/09/12 18:31:59;;;;;;;19.05;17.10;;;;;;;20.78;42.73;94278.33;827352;71;31769;-75
2021/09/12 18:46:14;;;;;;;18.10;16.07;;;;;;;20.56;44.09;94279.31;818553;71;31831;-74
2021/09/12 19:01:33;;;;;;;21.55;19.45;;;;;;;20.81;45.19;94286.95;775244;75;32229;-77
2021/09/12 19:16:16;;;;;;;19.82;17.85;;;;;;;21.16;45.42;94291.27;822897;71;31870;-78
2021/09/12 19:46:09;;;;;;;20.48;18.37;;;;;;;20.78;45.30;94314.33;829386;71;28718;-76
2021/09/12 20:01:12;;;;;;;18.32;16.40;;;;;;;20.10;46.24;94309.92;828756;71;28797;-76
2021/09/12 20:16:15;;;;;;;21.65;18.60;;;;;;;19.66;47.41;94316.07;827912;71;31783;-75
2021/09/12 20:31:09;;;;;;;19.82;16.00;;;;;;;20.73;47.45;94315.98;817492;71;29800;-78
2021/09/12 20:46:09;;;;;;;19.90;16.05;;;;;;;21.81;44.16;94324.95;828197;71;29286;-76
2021/09/12 21:16:08;;;;;;;17.00;15.43;;;;;;;22.43;42.43;94324.52;828369;71;28710;-77
2021/09/12 21:31:09;;;;;;;16.25;14.65;;;;;;;22.47;42.25;94315.95;829072;71;29370;-77
2021/09/12 21:46:08;;;;;;;16.82;15.30;;;;;;;22.55;41.88;94320.23;834028;71;28786;-76
2021/09/12 22:01:12;;;;;;;16.65;14.83;;;;;;;22.53;41.76;94326.52;828447;71;31497;-77
2021/09/12 22:16:15;;;;;;;15.60;14.10;;;;;;;22.43;42.22;94335.21;827345;71;32216;-79
2021/09/12 22:31:08;;;;;;;15.80;14.20;;;;;;;22.46;41.53;94331.78;828445;71;29166;-78
2021/09/12 22:46:09;;;;;;;16.25;14.55;;;;;;;22.39;41.15;94321.04;833993;71;29330;-78
2021/09/12 23:01:09;;;;;;;16.93;15.30;;;;;;;22.28;41.10;94315.56;835029;71;29296;-77
2021/09/12 23:16:14;;;;;;;21.65;19.35;;;;;;;22.29;41.11;94311.77;827443;71;32258;-77
2021/09/12 23:31:09;;;;;;;15.50;13.90;;;;;;;22.28;40.83;94317.47;828095;71;29249;-77
2021/09/12 23:46:08;;;;;;;15.63;14.13;;;;;;;22.15;41.10;94315.60;828089;71;29719;-76
